Yahata Maru — JL6477 — position and weather

sailwx.info

Track history (hours):
 
Tides and Currents Weather Stations Pressure Air Temp Water Temp Dewpoint Dewpoint Depression Visibility Wind Speed Wind Dir Waves Ship Positions

Yahata Maru

Last reported at 2016-Jul-27 06:33 UTC. Time now 2016-Jul-29 02:07 UTC.
Position N 35°01' E 139°28'.

Length 149 m; draft 4.7 m.

Type: Other ship. MMSI: 431400594.

Date/timePositionNaut miles runAvg speedWind from/ knotsBaromVisibWave heightAir tempDewpointWater temp
2016-Jul-27 06:33N 35°01' E 139°28'10 9.3
2016-Jul-27 05:29N 35°06' E 139°38'8 8.7
2016-Jul-27 04:33N 35°12' E 139°45'9 8.8
2016-Jul-27 03:33N 35°20' E 139°42'8 8.0
2016-Jul-27 02:33N 35°28' E 139°43'0 0.0
2016-Jul-27 01:33N 35°28' E 139°43'0 0.0
2016-Jul-27 00:33N 35°28' E 139°43'0 0.1
2016-Jul-26 23:33N 35°28' E 139°43'6 6.4
2016-Jul-26 22:33N 35°29' E 139°50'8 7.8
2016-Jul-26 21:33N 35°33' E 139°58'7 7.0
2016-Jul-26 20:33N 35°33' E 140°07'0 0.1
2016-Jul-26 19:31N 35°33' E 140°07'0 0.0
2016-Jul-26 18:25N 35°33' E 140°07'0 0.0
2016-Jul-26 17:31N 35°33' E 140°07'0 0.0
2016-Jul-26 16:28N 35°33' E 140°07'0 0.0
2016-Jul-26 15:28N 35°33' E 140°07'0 0.0
2016-Jul-26 14:28N 35°33' E 140°07'0 0.0
2016-Jul-26 13:31N 35°33' E 140°07'0 0.0
2016-Jul-26 12:31N 35°33' E 140°07'0 0.0
2016-Jul-26 11:25N 35°33' E 140°07'0 0.0
2016-Jul-26 10:31N 35°33' E 140°07'0 0.0
2016-Jul-26 09:31N 35°33' E 140°07'0 0.0
2016-Jul-26 08:31N 35°33' E 140°07'2 1.9
2016-Jul-26 07:33N 35°33' E 140°05'2 2.4
2016-Jul-26 06:33N 35°33' E 140°02'0 0.3
2016-Jul-26 05:33N 35°33' E 140°01'9 9.5
2016-Jul-26 04:33N 35°28' E 139°51'9 9.5
2016-Jul-26 03:33N 35°23' E 139°41'2 2.3
2016-Jul-26 02:31N 35°23' E 139°38'0 0.0
2016-Jul-26 01:31N 35°23' E 139°38'4 4.4
2016-Jul-26 00:33N 35°20' E 139°42'9 9.3
2016-Jul-25 23:33N 35°12' E 139°47'21 9.5
2016-Jul-25 21:23N 34°57' E 139°30'810.1
2016-Jul-25 20:33N 34°52' E 139°22'  
2016-Jul-21 09:15N 34°34' E 134°48'7 9.9
2016-Jul-21 08:30N 34°37' E 134°57'7 7.5
2016-Jul-21 07:33N 34°36' E 135°05'9 8.9
2016-Jul-21 06:33N 34°38' E 135°16'6 6.5
2016-Jul-21 05:33N 34°43' E 135°21'2 0.6
2016-Jul-21 02:33N 34°41' E 135°21'7 6.9
2016-Jul-21 01:33N 34°35' E 135°25'0 0.4
2016-Jul-21 00:33N 34°35' E 135°26'5 5.0
2016-Jul-20 23:33N 34°34' E 135°20'9 8.7
2016-Jul-20 22:33N 34°28' E 135°12'10 9.1
2016-Jul-20 21:28N 34°22' E 135°03'8 8.7
2016-Jul-20 20:33N 34°14' E 134°60'9 9.0
2016-Jul-20 19:33N 34°05' E 135°00'174 5.6
2016-Jul-19 12:17N 34°34' E 138°29'7 9.2
2016-Jul-19 11:31N 34°34' E 138°37'65 9.3
2016-Jul-19 04:33N 35°09' E 139°43'8 8.1
2016-Jul-19 03:34N 35°18' E 139°44'9 8.9
2016-Jul-19 02:33N 35°26' E 139°43'2 1.6
2016-Jul-19 01:31N 35°28' E 139°43'0 0.0
2016-Jul-19 00:31N 35°28' E 139°43'0 0.1
2016-Jul-18 23:33N 35°28' E 139°43'4 4.5
2016-Jul-18 22:33N 35°28' E 139°48'10 9.6
2016-Jul-18 21:33N 35°33' E 139°58'7 7.0
2016-Jul-18 20:33N 35°33' E 140°07'0 0.0
2016-Jul-18 19:21N 35°33' E 140°07'0 0.0
2016-Jul-18 18:33N 35°33' E 140°07'0 0.0
2016-Jul-18 17:33N 35°33' E 140°07'0 0.0
2016-Jul-18 16:30N 35°33' E 140°07'0 0.0
2016-Jul-18 15:27N 35°33' E 140°07'0 0.0
2016-Jul-18 14:33N 35°33' E 140°07'0 0.0
2016-Jul-18 13:33N 35°33' E 140°07'0 0.0
2016-Jul-18 12:27N 35°33' E 140°07'0 0.0
2016-Jul-18 11:33N 35°33' E 140°07'0 0.0
2016-Jul-18 10:24N 35°33' E 140°07'0 0.0
2016-Jul-18 09:30N 35°33' E 140°07'0 0.0
2016-Jul-18 08:30N 35°33' E 140°07'0 0.0
2016-Jul-18 07:33N 35°33' E 140°07'0 0.0
2016-Jul-18 06:33N 35°33' E 140°07'5 4.6
2016-Jul-18 05:33N 35°33' E 140°01'0 0.0
2016-Jul-18 04:32N 35°33' E 140°01'0 0.5
2016-Jul-18 03:33N 35°32' E 140°01'9 9.2
2016-Jul-18 02:33N 35°28' E 139°51'8 8.4
2016-Jul-18 01:33N 35°23' E 139°42'3 3.2
2016-Jul-18 00:33N 35°23' E 139°38'0 0.0
2016-Jul-17 23:31N 35°23' E 139°38'0 0.1
2016-Jul-17 22:33N 35°23' E 139°39'5 4.8
2016-Jul-17 21:34N 35°22' E 139°44'0 0.0
2016-Jul-17 20:33N 35°22' E 139°44'0 0.0
2016-Jul-17 19:33N 35°22' E 139°44'0 0.0
2016-Jul-17 18:30N 35°22' E 139°44'0 0.1
2016-Jul-17 17:33N 35°22' E 139°44'0 0.0
2016-Jul-17 16:33N 35°22' E 139°44'0 0.0
2016-Jul-17 15:33N 35°22' E 139°44'0 0.1
2016-Jul-17 14:33N 35°22' E 139°44'0 0.1
2016-Jul-17 13:33N 35°22' E 139°44'0 0.0
2016-Jul-17 12:33N 35°22' E 139°44'0 0.0
2016-Jul-17 11:33N 35°22' E 139°44'0 0.0
2016-Jul-17 10:33N 35°22' E 139°44'0 0.0
2016-Jul-17 09:33N 35°22' E 139°44'0 0.0
2016-Jul-17 08:33N 35°22' E 139°44'0 0.0
2016-Jul-17 07:30N 35°22' E 139°44'0 0.0
2016-Jul-17 06:33N 35°22' E 139°44'  
Track history (hours):
 
Tides and Currents Weather Stations Pressure Air Temp Water Temp Dewpoint Dewpoint Depression Visibility Wind Speed Wind Dir Waves Ship Positions

Yahata Maru

Last reported at 2016-Jul-27 06:33 UTC. Time now 2016-Jul-29 02:07 UTC.
Position N 35°01' E 139°28'.

Length 149 m; draft 4.7 m.

Type: Other ship. MMSI: 431400594.

Date/timePositionNaut miles runAvg speedWind from/ knotsBaromVisibWave heightAir tempDewpointWater temp
2016-Jul-27 06:33N 35°01' E 139°28'10 9.3
2016-Jul-27 05:29N 35°06' E 139°38'8 8.7
2016-Jul-27 04:33N 35°12' E 139°45'9 8.8
2016-Jul-27 03:33N 35°20' E 139°42'8 8.0
2016-Jul-27 02:33N 35°28' E 139°43'0 0.0
2016-Jul-27 01:33N 35°28' E 139°43'0 0.0
2016-Jul-27 00:33N 35°28' E 139°43'0 0.1
2016-Jul-26 23:33N 35°28' E 139°43'6 6.4
2016-Jul-26 22:33N 35°29' E 139°50'8 7.8
2016-Jul-26 21:33N 35°33' E 139°58'7 7.0
2016-Jul-26 20:33N 35°33' E 140°07'0 0.1
2016-Jul-26 19:31N 35°33' E 140°07'0 0.0
2016-Jul-26 18:25N 35°33' E 140°07'0 0.0
2016-Jul-26 17:31N 35°33' E 140°07'0 0.0
2016-Jul-26 16:28N 35°33' E 140°07'0 0.0
2016-Jul-26 15:28N 35°33' E 140°07'0 0.0
2016-Jul-26 14:28N 35°33' E 140°07'0 0.0
2016-Jul-26 13:31N 35°33' E 140°07'0 0.0
2016-Jul-26 12:31N 35°33' E 140°07'0 0.0
2016-Jul-26 11:25N 35°33' E 140°07'0 0.0
2016-Jul-26 10:31N 35°33' E 140°07'0 0.0
2016-Jul-26 09:31N 35°33' E 140°07'0 0.0
2016-Jul-26 08:31N 35°33' E 140°07'2 1.9
2016-Jul-26 07:33N 35°33' E 140°05'2 2.4
2016-Jul-26 06:33N 35°33' E 140°02'0 0.3
2016-Jul-26 05:33N 35°33' E 140°01'9 9.5
2016-Jul-26 04:33N 35°28' E 139°51'9 9.5
2016-Jul-26 03:33N 35°23' E 139°41'2 2.3
2016-Jul-26 02:31N 35°23' E 139°38'0 0.0
2016-Jul-26 01:31N 35°23' E 139°38'4 4.4
2016-Jul-26 00:33N 35°20' E 139°42'9 9.3
2016-Jul-25 23:33N 35°12' E 139°47'21 9.5
2016-Jul-25 21:23N 34°57' E 139°30'810.1
2016-Jul-25 20:33N 34°52' E 139°22'  
2016-Jul-21 09:15N 34°34' E 134°48'7 9.9
2016-Jul-21 08:30N 34°37' E 134°57'7 7.5
2016-Jul-21 07:33N 34°36' E 135°05'9 8.9
2016-Jul-21 06:33N 34°38' E 135°16'6 6.5
2016-Jul-21 05:33N 34°43' E 135°21'2 0.6
2016-Jul-21 02:33N 34°41' E 135°21'7 6.9
2016-Jul-21 01:33N 34°35' E 135°25'0 0.4
2016-Jul-21 00:33N 34°35' E 135°26'5 5.0
2016-Jul-20 23:33N 34°34' E 135°20'9 8.7
2016-Jul-20 22:33N 34°28' E 135°12'10 9.1
2016-Jul-20 21:28N 34°22' E 135°03'8 8.7
2016-Jul-20 20:33N 34°14' E 134°60'9 9.0
2016-Jul-20 19:33N 34°05' E 135°00'174 5.6
2016-Jul-19 12:17N 34°34' E 138°29'7 9.2
2016-Jul-19 11:31N 34°34' E 138°37'65 9.3
2016-Jul-19 04:33N 35°09' E 139°43'8 8.1
2016-Jul-19 03:34N 35°18' E 139°44'9 8.9
2016-Jul-19 02:33N 35°26' E 139°43'2 1.6
2016-Jul-19 01:31N 35°28' E 139°43'0 0.0
2016-Jul-19 00:31N 35°28' E 139°43'0 0.1
2016-Jul-18 23:33N 35°28' E 139°43'4 4.5
2016-Jul-18 22:33N 35°28' E 139°48'10 9.6
2016-Jul-18 21:33N 35°33' E 139°58'7 7.0
2016-Jul-18 20:33N 35°33' E 140°07'0 0.0
2016-Jul-18 19:21N 35°33' E 140°07'0 0.0
2016-Jul-18 18:33N 35°33' E 140°07'0 0.0
2016-Jul-18 17:33N 35°33' E 140°07'0 0.0
2016-Jul-18 16:30N 35°33' E 140°07'0 0.0
2016-Jul-18 15:27N 35°33' E 140°07'0 0.0
2016-Jul-18 14:33N 35°33' E 140°07'0 0.0
2016-Jul-18 13:33N 35°33' E 140°07'0 0.0
2016-Jul-18 12:27N 35°33' E 140°07'0 0.0
2016-Jul-18 11:33N 35°33' E 140°07'0 0.0
2016-Jul-18 10:24N 35°33' E 140°07'0 0.0
2016-Jul-18 09:30N 35°33' E 140°07'0 0.0
2016-Jul-18 08:30N 35°33' E 140°07'0 0.0
2016-Jul-18 07:33N 35°33' E 140°07'0 0.0
2016-Jul-18 06:33N 35°33' E 140°07'5 4.6
2016-Jul-18 05:33N 35°33' E 140°01'0 0.0
2016-Jul-18 04:32N 35°33' E 140°01'0 0.5
2016-Jul-18 03:33N 35°32' E 140°01'9 9.2
2016-Jul-18 02:33N 35°28' E 139°51'8 8.4
2016-Jul-18 01:33N 35°23' E 139°42'3 3.2
2016-Jul-18 00:33N 35°23' E 139°38'0 0.0
2016-Jul-17 23:31N 35°23' E 139°38'0 0.1
2016-Jul-17 22:33N 35°23' E 139°39'5 4.8
2016-Jul-17 21:34N 35°22' E 139°44'0 0.0
2016-Jul-17 20:33N 35°22' E 139°44'0 0.0
2016-Jul-17 19:33N 35°22' E 139°44'0 0.0
2016-Jul-17 18:30N 35°22' E 139°44'0 0.1
2016-Jul-17 17:33N 35°22' E 139°44'0 0.0
2016-Jul-17 16:33N 35°22' E 139°44'0 0.0
2016-Jul-17 15:33N 35°22' E 139°44'0 0.1
2016-Jul-17 14:33N 35°22' E 139°44'0 0.1
2016-Jul-17 13:33N 35°22' E 139°44'0 0.0
2016-Jul-17 12:33N 35°22' E 139°44'0 0.0
2016-Jul-17 11:33N 35°22' E 139°44'0 0.0
2016-Jul-17 10:33N 35°22' E 139°44'0 0.0
2016-Jul-17 09:33N 35°22' E 139°44'0 0.0
2016-Jul-17 08:33N 35°22' E 139°44'0 0.0
2016-Jul-17 07:30N 35°22' E 139°44'0 0.0
2016-Jul-17 06:33N 35°22' E 139°44'  

Dump ship's entire track history